createdAt,value
2023-04-15T00:01:55.164Z,4.13
2023-04-15T00:04:22.533Z,6.32
2023-04-15T00:06:53.910Z,4.07
2023-04-15T00:09:22.163Z,5.95
2023-04-15T00:11:51.483Z,6.30
2023-04-15T00:14:18.664Z,4.00
2023-04-15T00:16:46.010Z,5.47
2023-04-15T00:19:13.353Z,5.70
2023-04-15T00:21:41.098Z,6.72
2023-04-15T00:24:08.591Z,5.50
2023-04-15T00:26:36.009Z,7.20
2023-04-15T00:29:03.163Z,6.55
2023-04-15T00:31:31.636Z,5.20
2023-04-15T00:33:58.884Z,4.90
2023-04-15T00:36:26.566Z,5.53
2023-04-15T00:38:54.395Z,6.57
2023-04-15T00:41:21.598Z,5.97
2023-04-15T00:43:49.038Z,5.68
2023-04-15T00:46:18.467Z,5.95
2023-04-15T00:48:46.726Z,6.55
2023-04-15T00:51:14.978Z,8.20
2023-04-15T00:53:42.219Z,4.90
2023-04-15T00:56:09.828Z,4.85
2023-04-15T00:58:37.396Z,5.78
2023-04-15T01:01:05.034Z,6.10
2023-04-15T01:03:32.579Z,4.28
2023-04-15T01:06:03.621Z,5.65
2023-04-15T01:08:32.071Z,5.28
2023-04-15T01:11:02.691Z,3.83
2023-04-15T01:13:30.972Z,5.05
2023-04-15T01:15:59.044Z,3.58
2023-04-15T01:18:27.548Z,5.53
2023-04-15T01:20:54.896Z,5.00
2023-04-15T01:23:23.360Z,5.05
2023-04-15T01:25:51.977Z,4.55
2023-04-15T01:28:19.332Z,3.60
2023-04-15T01:30:46.555Z,3.53
2023-04-15T01:33:14.164Z,3.40
2023-04-15T01:35:41.574Z,4.10
2023-04-15T01:38:11.619Z,3.42
2023-04-15T01:40:38.991Z,3.38
2023-04-15T01:43:06.180Z,4.70
2023-04-15T01:45:33.394Z,4.80
2023-04-15T01:48:01.038Z,7.22
2023-04-15T01:50:28.564Z,5.25
2023-04-15T01:52:57.822Z,7.10
2023-04-15T01:55:24.957Z,5.50
2023-04-15T01:57:52.642Z,5.07
2023-04-15T02:00:19.792Z,5.63
2023-04-15T02:02:46.939Z,7.40
2023-04-15T02:05:14.775Z,4.90
2023-04-15T02:07:45.694Z,4.65
2023-04-15T02:10:14.067Z,4.00
2023-04-15T02:12:41.228Z,3.53
2023-04-15T02:15:09.308Z,4.43
2023-04-15T02:17:37.812Z,4.05
2023-04-15T02:20:11.974Z,5.18
2023-04-15T02:22:39.256Z,6.53
2023-04-15T02:25:07.402Z,7.05
2023-04-15T02:27:34.624Z,4.20
2023-04-15T02:30:01.943Z,4.47
2023-04-15T02:32:29.424Z,3.95
2023-04-15T02:34:56.646Z,4.85
2023-04-15T02:37:25.162Z,3.60
2023-04-15T02:39:52.279Z,5.25
2023-04-15T02:42:19.430Z,5.18
2023-04-15T02:44:46.533Z,5.25
2023-04-15T02:47:15.038Z,5.32
2023-04-15T02:49:42.096Z,5.82
2023-04-15T02:52:10.277Z,5.53
2023-04-15T02:54:37.640Z,6.50
2023-04-15T02:57:06.919Z,5.68
2023-04-15T02:59:34.070Z,5.40
2023-04-15T03:02:01.338Z,6.93
2023-04-15T03:04:30.420Z,5.90
2023-04-15T03:06:57.764Z,6.07
2023-04-15T03:09:25.138Z,5.60
2023-04-15T03:11:53.894Z,5.85
2023-04-15T03:14:21.133Z,6.85
2023-04-15T03:16:48.311Z,6.68
2023-04-15T03:19:16.064Z,6.03
2023-04-15T03:21:43.226Z,4.32
2023-04-15T03:24:10.875Z,5.05
2023-04-15T03:26:38.158Z,6.20
2023-04-15T03:29:05.334Z,5.97
2023-04-15T03:31:32.481Z,4.22
2023-04-15T03:33:59.695Z,3.78
2023-04-15T03:36:27.627Z,3.65
2023-04-15T03:38:55.268Z,3.45
2023-04-15T03:41:22.796Z,3.65
2023-04-15T03:43:52.615Z,4.50
2023-04-15T03:46:20.000Z,4.75
2023-04-15T03:48:48.446Z,6.68
2023-04-15T03:51:15.762Z,5.43
2023-04-15T03:53:43.960Z,3.92
2023-04-15T03:56:11.157Z,4.57
2023-04-15T03:58:38.322Z,5.43
2023-04-15T04:01:06.203Z,5.05
2023-04-15T04:03:33.932Z,5.10
2023-04-15T04:06:01.237Z,4.95
2023-04-15T04:08:28.397Z,4.75
2023-04-15T04:10:55.525Z,4.57
2023-04-15T04:13:22.829Z,4.80
2023-04-15T04:15:50.248Z,5.00
2023-04-15T04:18:17.434Z,5.82
2023-04-15T04:20:44.699Z,5.72
2023-04-15T04:23:12.139Z,5.45
2023-04-15T04:25:39.370Z,5.35
2023-04-15T04:28:06.476Z,6.65
2023-04-15T04:30:33.732Z,5.35
2023-04-15T04:33:01.176Z,5.47
2023-04-15T04:35:28.542Z,5.00
2023-04-15T04:37:56.248Z,5.28
2023-04-15T04:40:23.424Z,4.28
2023-04-15T04:42:50.644Z,5.00
2023-04-15T04:45:18.478Z,5.35
2023-04-15T04:47:46.815Z,5.05
2023-04-15T04:50:14.184Z,5.93
2023-04-15T04:52:41.355Z,6.18
2023-04-15T04:55:08.908Z,5.45
2023-04-15T04:57:36.311Z,10.63
2023-04-15T05:00:05.184Z,11.90
2023-04-15T05:02:32.830Z,15.20
2023-04-15T05:05:00.061Z,8.80
2023-04-15T05:07:28.116Z,13.73
2023-04-15T05:09:55.253Z,12.73
2023-04-15T05:12:22.492Z,3.42
2023-04-15T05:14:49.596Z,4.22
2023-04-15T05:17:16.753Z,3.10
2023-04-15T05:19:43.935Z,2.45
2023-04-15T05:22:11.248Z,2.55
2023-04-15T05:24:38.333Z,2.78
2023-04-15T05:27:05.584Z,2.60
2023-04-15T05:29:33.251Z,3.17
2023-04-15T05:32:00.722Z,3.67
2023-04-15T05:34:27.865Z,3.25
2023-04-15T05:36:55.010Z,3.95
2023-04-15T05:39:22.410Z,3.30
2023-04-15T05:41:49.593Z,3.85
2023-04-15T05:44:17.163Z,3.53
2023-04-15T05:46:44.358Z,4.93
2023-04-15T05:49:11.715Z,5.05
2023-04-15T05:51:38.818Z,5.53
2023-04-15T05:54:05.968Z,9.20
2023-04-15T05:56:33.382Z,6.53
2023-04-15T05:59:00.846Z,7.18
2023-04-15T06:01:28.278Z,9.68
2023-04-15T06:03:55.959Z,8.00
2023-04-15T06:06:23.313Z,8.43
2023-04-15T06:08:50.524Z,6.85
2023-04-15T06:11:17.670Z,9.23
2023-04-15T06:13:44.950Z,9.98
2023-04-15T06:16:12.138Z,10.38
2023-04-15T06:18:39.436Z,5.47
2023-04-15T06:21:06.672Z,6.65
2023-04-15T06:23:37.496Z,6.13
2023-04-15T06:26:04.676Z,6.13
2023-04-15T06:28:31.799Z,9.05
2023-04-15T06:30:59.157Z,7.90
2023-04-15T06:33:26.611Z,7.25
2023-04-15T06:35:53.893Z,7.75
2023-04-15T06:38:21.087Z,7.47
2023-04-15T06:40:48.277Z,12.13
2023-04-15T06:43:15.622Z,6.63
2023-04-15T06:45:42.856Z,7.18
2023-04-15T06:48:10.014Z,7.50
2023-04-15T06:50:37.245Z,8.32
2023-04-15T06:53:04.420Z,7.22
2023-04-15T06:55:31.906Z,7.32
2023-04-15T06:57:59.286Z,6.78
2023-04-15T07:00:26.643Z,8.68
2023-04-15T07:02:55.457Z,8.93
2023-04-15T07:05:22.942Z,10.77
2023-04-15T07:07:50.553Z,7.53
2023-04-15T07:10:17.883Z,5.30
2023-04-15T07:12:45.066Z,7.13
2023-04-15T07:15:12.589Z,7.60
2023-04-15T07:17:40.878Z,8.00
2023-04-15T07:20:08.781Z,5.65
2023-04-15T07:22:35.994Z,6.85
2023-04-15T07:25:03.140Z,5.93
2023-04-15T07:27:30.421Z,4.35
2023-04-15T07:29:57.655Z,4.50
2023-04-15T07:32:24.821Z,4.80
2023-04-15T07:34:52.061Z,5.35
2023-04-15T07:37:19.826Z,3.47
2023-04-15T07:39:47.610Z,2.75
2023-04-15T07:42:15.868Z,3.70
2023-04-15T07:44:43.036Z,3.63
2023-04-15T07:47:10.305Z,4.05
2023-04-15T07:49:38.393Z,4.05
2023-04-15T07:52:06.156Z,3.40
2023-04-15T07:54:33.608Z,3.10
2023-04-15T07:57:00.799Z,4.25
2023-04-15T07:59:30.283Z,8.73
2023-04-15T08:01:58.216Z,8.77
2023-04-15T08:04:25.753Z,4.45
2023-04-15T08:06:53.110Z,4.18
2023-04-15T08:09:20.831Z,7.15
2023-04-15T08:11:49.647Z,5.78
2023-04-15T08:14:17.288Z,4.75
2023-04-15T08:16:44.964Z,3.72
2023-04-15T08:19:12.247Z,3.45
2023-04-15T08:21:39.568Z,4.65
2023-04-15T08:24:07.271Z,2.67
2023-04-15T08:26:34.448Z,3.13
2023-04-15T08:29:01.869Z,3.25
2023-04-15T08:31:30.201Z,2.92
2023-04-15T08:33:58.431Z,2.15
2023-04-15T08:36:25.968Z,4.47
2023-04-15T08:38:53.376Z,2.60
2023-04-15T08:41:25.882Z,3.72
2023-04-15T08:44:01.088Z,2.50
2023-04-15T08:46:28.469Z,3.85
2023-04-15T08:48:59.152Z,2.90
2023-04-15T08:51:27.427Z,7.07
2023-04-15T08:53:56.044Z,5.78
2023-04-15T08:56:27.262Z,6.43
2023-04-15T08:58:54.982Z,6.43
2023-04-15T09:01:23.262Z,4.53
2023-04-15T09:03:51.999Z,5.00
2023-04-15T09:06:19.414Z,13.13
2023-04-15T09:08:46.653Z,14.55
2023-04-15T09:11:14.204Z,13.10
2023-04-15T09:13:41.371Z,13.43
2023-04-15T09:16:08.679Z,15.27
2023-04-15T09:18:37.346Z,10.02
2023-04-15T09:21:09.811Z,15.82
2023-04-15T09:23:38.431Z,3.75
2023-04-15T09:26:06.615Z,17.10
2023-04-15T09:28:36.215Z,10.48
2023-04-15T09:31:04.180Z,8.93
2023-04-15T09:33:31.849Z,6.32
2023-04-15T09:36:07.079Z,9.35
2023-04-15T09:38:34.414Z,7.00
2023-04-15T09:41:01.694Z,14.07
2023-04-15T09:43:40.280Z,14.25
2023-04-15T09:46:07.524Z,4.30
2023-04-15T09:48:34.806Z,5.65
2023-04-15T09:51:02.531Z,2.63
2023-04-15T09:53:31.750Z,4.03
2023-04-15T09:56:03.953Z,5.38
2023-04-15T09:58:33.819Z,4.10
2023-04-15T10:01:04.123Z,6.28
2023-04-15T10:03:34.889Z,9.30
2023-04-15T10:06:03.924Z,4.97
2023-04-15T10:08:35.469Z,3.15
2023-04-15T10:11:03.900Z,3.42
2023-04-15T10:13:36.323Z,2.40
2023-04-15T10:16:11.249Z,2.78
2023-04-15T10:18:54.770Z,2.85
2023-04-15T10:21:23.861Z,3.28
2023-04-15T10:23:51.662Z,2.20
2023-04-15T10:26:19.129Z,3.88
2023-04-15T10:28:50.043Z,5.63
2023-04-15T10:31:19.434Z,2.80
2023-04-15T10:33:48.768Z,7.32
2023-04-15T10:36:16.992Z,5.75
2023-04-15T10:38:47.045Z,7.38
2023-04-15T10:41:26.333Z,5.50
2023-04-15T10:43:56.506Z,3.55
2023-04-15T10:46:47.901Z,18.45
2023-04-15T10:49:25.453Z,26.48
2023-04-15T10:51:57.886Z,16.88
2023-04-15T10:54:24.950Z,8.18
2023-04-15T10:57:06.982Z,8.43
2023-04-15T10:59:39.108Z,5.07
2023-04-15T11:02:07.952Z,10.63
2023-04-15T11:05:00.436Z,10.38
2023-04-15T11:07:40.709Z,12.10
2023-04-15T11:10:24.781Z,19.00
2023-04-15T11:12:59.935Z,6.53
2023-04-15T11:15:32.793Z,5.93
2023-04-15T11:18:07.676Z,8.85
2023-04-15T11:20:35.351Z,3.20
2023-04-15T11:23:14.018Z,3.17
2023-04-15T11:25:43.775Z,5.07
2023-04-15T11:28:12.962Z,3.90
2023-04-15T11:30:40.991Z,5.15
2023-04-15T11:33:10.250Z,3.60
2023-04-15T11:35:37.374Z,4.07
2023-04-15T11:38:06.360Z,4.00
2023-04-15T11:40:33.724Z,2.28
2023-04-15T11:43:07.881Z,3.08
2023-04-15T11:45:36.931Z,1.67
2023-04-15T11:48:08.862Z,1.60
2023-04-15T11:50:37.154Z,1.83
2023-04-15T11:53:08.406Z,8.38
2023-04-15T11:55:44.701Z,2.53
2023-04-15T11:58:19.268Z,2.33
2023-04-15T12:00:53.523Z,1.73
2023-04-15T12:03:32.520Z,4.22
2023-04-15T12:06:13.560Z,2.20
2023-04-15T12:09:07.498Z,2.50
2023-04-15T12:11:38.182Z,3.05
2023-04-15T12:14:11.274Z,3.92
2023-04-15T12:16:48.394Z,3.25
2023-04-15T12:19:26.364Z,2.63
2023-04-15T12:22:01.145Z,4.45
2023-04-15T12:24:31.410Z,4.45
2023-04-15T12:27:03.045Z,5.88
2023-04-15T12:29:31.183Z,4.53
2023-04-15T12:32:05.469Z,5.93
2023-04-15T12:34:35.038Z,2.60
2023-04-15T12:37:04.970Z,3.35
2023-04-15T12:39:36.226Z,3.53
2023-04-15T12:42:05.521Z,6.20
2023-04-15T12:44:33.854Z,16.48
2023-04-15T12:47:01.640Z,14.82
2023-04-15T12:49:29.484Z,4.05
2023-04-15T12:51:58.010Z,9.73
2023-04-15T12:54:25.573Z,10.18
2023-04-15T12:56:56.383Z,12.30
2023-04-15T12:59:24.576Z,10.05
2023-04-15T13:01:53.984Z,6.70
2023-04-15T13:04:22.282Z,4.22
2023-04-15T13:06:49.999Z,4.68
2023-04-15T13:09:26.592Z,4.90
2023-04-15T13:11:54.871Z,5.40
2023-04-15T13:14:22.088Z,3.90
2023-04-15T13:16:49.327Z,5.95
2023-04-15T13:19:16.609Z,5.72
2023-04-15T13:21:43.806Z,4.85
2023-04-15T13:24:10.957Z,3.35
2023-04-15T13:26:38.181Z,4.72
2023-04-15T13:29:05.786Z,7.65
2023-04-15T13:31:33.012Z,7.40
2023-04-15T13:34:03.841Z,11.38
2023-04-15T13:36:31.761Z,5.90
2023-04-15T13:39:00.264Z,23.73
2023-04-15T13:41:27.492Z,7.90
2023-04-15T13:43:55.006Z,7.03
2023-04-15T13:46:22.386Z,6.65
2023-04-15T13:48:50.326Z,14.63
2023-04-15T13:51:17.524Z,6.53
2023-04-15T13:53:45.010Z,6.57
2023-04-15T13:56:12.617Z,12.85
2023-04-15T13:58:41.807Z,9.88
2023-04-15T14:01:09.443Z,8.27
2023-04-15T14:03:37.314Z,11.07
2023-04-15T14:06:06.426Z,10.90
2023-04-15T14:08:34.278Z,13.00
2023-04-15T14:11:01.795Z,9.20
2023-04-15T14:13:29.288Z,8.80
2023-04-15T14:15:58.251Z,10.20
2023-04-15T14:18:26.024Z,8.60
2023-04-15T14:20:53.893Z,6.80
2023-04-15T14:23:21.504Z,7.25
2023-04-15T14:25:49.017Z,8.82
2023-04-15T14:28:16.621Z,9.25
2023-04-15T14:30:44.673Z,8.52
2023-04-15T14:33:12.336Z,8.60
2023-04-15T14:35:40.103Z,6.78
2023-04-15T14:38:11.132Z,9.30
2023-04-15T14:40:39.203Z,8.48
2023-04-15T14:43:06.909Z,8.88
2023-04-15T14:45:34.609Z,8.07
2023-04-15T14:48:02.692Z,9.57
2023-04-15T14:50:30.511Z,7.43
2023-04-15T14:52:59.308Z,8.20
2023-04-15T14:55:26.867Z,7.65
2023-04-15T14:57:54.713Z,7.63
2023-04-15T15:00:22.429Z,9.38
2023-04-15T15:02:50.517Z,5.00
2023-04-15T15:05:18.260Z,7.55
2023-04-15T15:07:46.116Z,6.75
2023-04-15T15:10:13.977Z,8.38
2023-04-15T15:12:41.768Z,11.15
2023-04-15T15:15:25.163Z,9.48
2023-04-15T15:17:56.815Z,9.80
2023-04-15T15:20:25.697Z,13.15
2023-04-15T15:22:53.217Z,8.63
2023-04-15T15:25:21.314Z,10.43
2023-04-15T15:27:50.001Z,10.85
2023-04-15T15:30:17.123Z,9.70
2023-04-15T15:32:44.565Z,8.68
2023-04-15T15:35:11.846Z,8.63
2023-04-15T15:37:39.061Z,10.05
2023-04-15T15:40:07.627Z,9.23
2023-04-15T15:42:36.260Z,10.05
2023-04-15T15:45:05.047Z,9.55
2023-04-15T15:47:32.530Z,7.50
2023-04-15T15:50:04.235Z,8.23
2023-04-15T15:52:33.873Z,22.38
2023-04-15T15:55:02.281Z,9.88
2023-04-15T15:57:29.456Z,10.65
2023-04-15T16:00:10.273Z,10.00
2023-04-15T16:03:04.974Z,11.80
2023-04-15T16:05:26.817Z,8.32
2023-04-15T16:07:54.044Z,9.55
2023-04-15T16:10:21.252Z,9.25
2023-04-15T16:12:48.567Z,8.32
2023-04-15T16:15:15.786Z,9.65
2023-04-15T16:17:42.911Z,11.60
2023-04-15T16:20:10.511Z,7.72
2023-04-15T16:22:38.052Z,9.38
2023-04-15T16:25:05.648Z,7.40
2023-04-15T16:27:33.801Z,7.63
2023-04-15T16:30:02.192Z,10.45
2023-04-15T16:32:29.643Z,8.23
2023-04-15T16:34:57.093Z,11.98
2023-04-15T16:37:24.293Z,9.65
2023-04-15T16:39:51.822Z,11.73
2023-04-15T16:42:19.174Z,13.40
2023-04-15T16:44:46.477Z,9.95
2023-04-15T16:47:13.790Z,7.95
2023-04-15T16:49:41.373Z,8.48
2023-04-15T16:52:08.846Z,10.10
2023-04-15T16:54:41.595Z,7.43
2023-04-15T16:57:11.059Z,8.63
2023-04-15T16:59:38.877Z,9.18
2023-04-15T17:02:06.766Z,10.23
2023-04-15T17:04:35.413Z,11.10
2023-04-15T17:07:03.141Z,12.10
2023-04-15T17:09:30.373Z,10.77
2023-04-15T17:11:58.398Z,9.75
2023-04-15T17:14:26.107Z,8.90
2023-04-15T17:16:53.684Z,7.93
2023-04-15T17:19:20.985Z,8.82
2023-04-15T17:21:48.592Z,10.07
2023-04-15T17:24:16.318Z,10.48
2023-04-15T17:26:44.282Z,7.82
2023-04-15T17:29:12.155Z,9.13
2023-04-15T17:31:39.468Z,7.72
2023-04-15T17:34:10.199Z,12.25
2023-04-15T17:36:39.072Z,14.35
2023-04-15T17:39:06.841Z,12.77
2023-04-15T17:41:37.480Z,11.05
2023-04-15T17:44:05.368Z,9.75
2023-04-15T17:46:33.230Z,14.90
2023-04-15T17:49:01.299Z,11.88
2023-04-15T17:51:28.696Z,14.52
2023-04-15T17:53:56.531Z,11.88
2023-04-15T17:56:24.607Z,12.57
2023-04-15T17:58:56.076Z,10.77
2023-04-15T18:01:24.227Z,11.07
2023-04-15T18:03:52.051Z,9.82
2023-04-15T18:06:21.853Z,11.10
2023-04-15T18:08:49.775Z,9.23
2023-04-15T18:11:18.252Z,7.97
2023-04-15T18:13:46.295Z,10.50
2023-04-15T18:16:14.006Z,10.38
2023-04-15T18:18:41.850Z,10.80
2023-04-15T18:21:11.037Z,9.20
2023-04-15T18:23:40.122Z,10.98
2023-04-15T18:26:08.090Z,11.80
2023-04-15T18:28:36.092Z,9.18
2023-04-15T18:31:04.487Z,9.93
2023-04-15T18:33:32.721Z,11.65
2023-04-15T18:36:00.555Z,11.25
2023-04-15T18:38:27.940Z,15.57
2023-04-15T18:40:55.607Z,15.40
2023-04-15T18:43:23.450Z,15.25
2023-04-15T18:45:53.983Z,15.60
2023-04-15T18:48:22.465Z,15.20
2023-04-15T18:50:54.806Z,15.48
2023-04-15T18:53:24.691Z,16.40
2023-04-15T18:55:52.261Z,14.55
2023-04-15T18:58:19.902Z,11.88
2023-04-15T19:00:49.456Z,9.25
2023-04-15T19:03:27.024Z,8.98
2023-04-15T19:05:55.480Z,12.15
2023-04-15T19:08:23.489Z,13.82
2023-04-15T19:10:51.718Z,15.82
2023-04-15T19:13:20.967Z,12.48
2023-04-15T19:15:48.971Z,11.98
2023-04-15T19:18:16.769Z,10.48
2023-04-15T19:20:44.654Z,9.20
2023-04-15T19:23:12.622Z,9.25
2023-04-15T19:25:40.703Z,9.23
2023-04-15T19:28:08.876Z,7.55
2023-04-15T19:30:37.260Z,9.23
2023-04-15T19:33:05.247Z,6.13
2023-04-15T19:35:33.386Z,5.55
2023-04-15T19:38:01.498Z,6.60
2023-04-15T19:40:29.413Z,7.03
2023-04-15T19:42:57.441Z,7.78
2023-04-15T19:45:24.901Z,8.23
2023-04-15T19:47:54.697Z,7.13
2023-04-15T19:50:26.721Z,12.30
2023-04-15T19:52:57.197Z,11.35
2023-04-15T19:55:25.040Z,19.50
2023-04-15T19:57:52.895Z,18.67
2023-04-15T20:00:21.565Z,10.68
2023-04-15T20:02:49.339Z,10.20
2023-04-15T20:05:17.914Z,10.45
2023-04-15T20:07:49.014Z,11.93
2023-04-15T20:10:16.605Z,11.88
2023-04-15T20:12:51.354Z,13.80
2023-04-15T20:15:23.289Z,15.32
2023-04-15T20:17:51.414Z,19.73
2023-04-15T20:20:20.950Z,18.65
2023-04-15T20:22:48.544Z,19.35
2023-04-15T20:25:16.534Z,15.23
2023-04-15T20:27:44.520Z,18.25
2023-04-15T20:30:12.418Z,15.85
2023-04-15T20:32:40.288Z,19.88
2023-04-15T20:35:08.416Z,18.75
2023-04-15T20:37:37.911Z,19.80
2023-04-15T20:40:08.435Z,17.77
2023-04-15T20:42:35.744Z,20.17
2023-04-15T20:45:04.720Z,17.70
2023-04-15T20:47:32.374Z,13.93
2023-04-15T20:50:00.221Z,14.82
2023-04-15T20:52:28.140Z,15.32
2023-04-15T20:54:59.891Z,16.05
2023-04-15T20:57:27.797Z,15.30
2023-04-15T20:59:55.484Z,16.90
2023-04-15T21:02:25.994Z,18.55
2023-04-15T21:04:53.224Z,18.25
2023-04-15T21:07:20.573Z,19.25
2023-04-15T21:09:47.986Z,17.25
2023-04-15T21:12:15.604Z,13.32
2023-04-15T21:14:43.033Z,11.73
2023-04-15T21:17:11.281Z,16.73
2023-04-15T21:19:39.347Z,12.20
2023-04-15T21:22:06.556Z,14.00
2023-04-15T21:24:33.654Z,17.95
2023-04-15T21:27:02.116Z,22.63
2023-04-15T21:29:29.333Z,16.90
2023-04-15T21:31:56.551Z,16.98
2023-04-15T21:34:23.873Z,15.82
2023-04-15T21:36:51.053Z,14.48
2023-04-15T21:39:18.310Z,17.42
2023-04-15T21:41:45.508Z,15.45
2023-04-15T21:44:14.612Z,13.85
2023-04-15T21:46:45.999Z,16.08
2023-04-15T21:49:14.076Z,17.58
2023-04-15T21:51:41.205Z,18.80
2023-04-15T21:54:08.420Z,17.63
2023-04-15T21:56:35.734Z,17.80
2023-04-15T21:59:02.937Z,17.60
2023-04-15T22:01:30.230Z,14.18
2023-04-15T22:03:57.546Z,11.88
2023-04-15T22:06:24.702Z,14.13
2023-04-15T22:09:11.938Z,13.05
2023-04-15T22:11:39.035Z,12.00
2023-04-15T22:14:06.236Z,12.85
2023-04-15T22:16:33.458Z,15.68
2023-04-15T22:19:00.585Z,10.40
2023-04-15T22:21:27.982Z,9.15
2023-04-15T22:24:33.960Z,10.38
2023-04-15T22:26:42.419Z,10.68
2023-04-15T22:29:09.647Z,10.25
2023-04-15T22:31:37.024Z,9.07
2023-04-15T22:34:04.202Z,9.25
2023-04-15T22:36:34.069Z,11.30
2023-04-15T22:39:01.142Z,8.68
2023-04-15T22:41:28.312Z,7.13
2023-04-15T22:43:55.436Z,7.72
2023-04-15T22:46:22.866Z,7.50
2023-04-15T22:48:50.020Z,3.78
2023-04-15T22:51:23.034Z,3.38
2023-04-15T22:53:50.783Z,3.70
2023-04-15T22:56:22.388Z,3.70
2023-04-15T22:58:50.844Z,3.15
2023-04-15T23:01:19.079Z,2.85
2023-04-15T23:03:58.035Z,3.55
2023-04-15T23:06:32.005Z,3.80
2023-04-15T23:08:59.110Z,2.55
2023-04-15T23:11:26.313Z,2.83
2023-04-15T23:13:53.463Z,1.92
2023-04-15T23:16:20.736Z,2.47
2023-04-15T23:18:47.881Z,3.80
2023-04-15T23:21:15.037Z,3.17
2023-04-15T23:23:42.191Z,2.05
2023-04-15T23:26:09.235Z,2.60
2023-04-15T23:28:36.338Z,2.55
2023-04-15T23:31:03.506Z,2.35
2023-04-15T23:33:32.802Z,1.50
2023-04-15T23:36:00.107Z,1.65
2023-04-15T23:38:27.313Z,1.83
2023-04-15T23:40:54.430Z,1.80
2023-04-15T23:43:21.844Z,2.50
2023-04-15T23:45:49.177Z,2.40
2023-04-15T23:48:16.364Z,2.13
2023-04-15T23:50:43.507Z,2.10
2023-04-15T23:53:10.631Z,2.15
2023-04-15T23:55:37.759Z,2.97
2023-04-15T23:58:04.909Z,2.80
